createdAt,value
2023-12-23T00:00:15.523Z,42.07
2023-12-23T00:01:15.559Z,42.07
2023-12-23T00:02:15.587Z,40.83
2023-12-23T00:03:15.478Z,40.52
2023-12-23T00:04:15.457Z,38.78
2023-12-23T00:05:15.516Z,42.07
2023-12-23T00:06:15.554Z,43.09
2023-12-23T00:07:15.420Z,40.01
2023-12-23T00:08:15.434Z,38.78
2023-12-23T00:09:15.419Z,41.65
2023-12-23T00:10:15.396Z,40.52
2023-12-23T00:11:15.473Z,38.57
2023-12-23T00:12:15.421Z,41.33
2023-12-23T00:13:15.349Z,38.85
2023-12-23T00:14:15.368Z,37.42
2023-12-23T00:15:15.340Z,38.06
2023-12-23T00:16:15.337Z,38.57
2023-12-23T00:17:15.429Z,39.08
2023-12-23T00:18:15.391Z,39.70
2023-12-23T00:19:15.415Z,40.21
2023-12-23T00:20:15.334Z,40.52
2023-12-23T00:21:15.264Z,40.11
2023-12-23T00:22:15.234Z,38.87
2023-12-23T00:23:15.303Z,38.15
2023-12-23T00:24:15.234Z,38.15
2023-12-23T00:25:15.193Z,36.51
2023-12-23T00:26:15.192Z,36.82
2023-12-23T00:27:15.183Z,35.48
2023-12-23T00:28:15.135Z,32.60
2023-12-23T00:29:15.207Z,32.29
2023-12-23T00:30:15.170Z,28.59
2023-12-23T00:31:15.082Z,28.80
2023-12-23T00:32:15.108Z,26.84
2023-12-23T00:33:15.151Z,27.36
2023-12-23T00:34:15.066Z,23.75
2023-12-23T00:35:15.104Z,21.08
2023-12-23T00:36:15.021Z,19.95
2023-12-23T00:37:15.073Z,19.24
2023-12-23T00:38:15.107Z,17.80
2023-12-23T00:39:15.016Z,15.63
2023-12-23T00:40:15.013Z,12.96
2023-12-23T00:41:15.092Z,11.83
2023-12-23T00:42:14.971Z,10.39
2023-12-23T00:43:14.959Z,11.72
2023-12-23T00:44:15.027Z,10.39
2023-12-23T00:45:14.893Z,9.88
2023-12-23T00:46:14.883Z,9.56
2023-12-23T00:47:15.012Z,7.31
2023-12-23T00:48:14.977Z,6.79
2023-12-23T00:49:14.882Z,5.86
2023-12-23T00:50:14.897Z,6.48
2023-12-23T00:51:14.819Z,6.79
2023-12-23T00:52:14.814Z,7.92
2023-12-23T00:53:14.979Z,7.51
2023-12-23T00:54:14.787Z,6.59
2023-12-23T00:55:14.797Z,4.73
2023-12-23T00:56:14.833Z,2.78
2023-12-23T00:57:14.737Z,1.44
2023-12-23T00:58:14.710Z,0.00
2023-12-23T00:59:14.849Z,0.00
2023-12-23T01:00:14.680Z,0.00
2023-12-23T01:01:14.675Z,0.00
2023-12-23T01:02:14.754Z,0.00
2023-12-23T01:03:14.704Z,0.00
2023-12-23T01:04:14.644Z,0.00
2023-12-23T01:05:14.706Z,0.00
2023-12-23T01:06:14.672Z,0.00
2023-12-23T01:07:14.631Z,0.00
2023-12-23T01:08:14.653Z,0.00
2023-12-23T01:09:14.562Z,0.92
2023-12-23T01:10:14.613Z,0.00
2023-12-23T01:11:14.660Z,0.00
2023-12-23T01:12:14.558Z,0.00
2023-12-23T01:13:14.554Z,0.00
2023-12-23T01:14:14.641Z,0.00
2023-12-23T01:15:14.545Z,0.00
2023-12-23T01:16:14.554Z,0.00
2023-12-23T01:17:14.511Z,0.00
2023-12-23T01:18:15.480Z,0.00
2023-12-23T01:19:14.482Z,0.00
2023-12-23T01:20:14.474Z,0.00
2023-12-23T01:21:14.418Z,0.00
2023-12-23T01:22:14.408Z,0.00
2023-12-23T01:23:14.503Z,0.00
2023-12-23T01:24:14.394Z,0.00
2023-12-23T01:25:15.379Z,0.00
2023-12-23T01:26:14.438Z,0.00
2023-12-23T01:27:14.327Z,0.00
2023-12-23T01:28:14.335Z,0.00
2023-12-23T01:29:14.369Z,0.00
2023-12-23T01:30:14.354Z,0.00
2023-12-23T01:31:14.277Z,0.00
2023-12-23T01:32:14.327Z,0.00
2023-12-23T01:33:14.336Z,0.00
2023-12-23T01:34:14.242Z,0.00
2023-12-23T01:35:14.279Z,0.00
2023-12-23T01:36:14.268Z,0.00
2023-12-23T01:37:14.185Z,0.00
2023-12-23T01:38:14.256Z,0.00
2023-12-23T01:39:14.188Z,0.00
2023-12-23T01:40:14.183Z,0.00
2023-12-23T01:41:14.244Z,0.00
2023-12-23T01:42:14.134Z,0.00
2023-12-23T01:43:14.099Z,0.00
2023-12-23T01:44:14.265Z,0.00
2023-12-23T01:45:14.094Z,0.00
2023-12-23T01:46:14.114Z,0.00
2023-12-23T01:47:14.133Z,0.00
2023-12-23T01:48:14.146Z,0.00
2023-12-23T01:49:14.143Z,0.00
2023-12-23T01:50:14.036Z,0.00
2023-12-23T01:51:14.020Z,0.00
2023-12-23T01:52:13.976Z,0.00
2023-12-23T01:53:14.017Z,0.00
2023-12-23T01:54:13.967Z,0.00
2023-12-23T01:55:13.959Z,0.00
2023-12-23T01:56:13.989Z,0.00
2023-12-23T01:57:13.922Z,0.00
2023-12-23T01:58:13.936Z,0.00
2023-12-23T01:59:13.985Z,0.00
2023-12-23T02:00:13.896Z,0.00
2023-12-23T02:01:13.938Z,0.00
2023-12-23T02:02:14.028Z,0.00
2023-12-23T02:03:13.883Z,0.00
2023-12-23T02:04:13.820Z,0.00
2023-12-23T02:05:13.887Z,0.00
2023-12-23T02:06:13.846Z,0.00
2023-12-23T02:07:13.812Z,0.00
2023-12-23T02:08:13.949Z,0.00
2023-12-23T02:09:13.758Z,0.00
2023-12-23T02:10:13.772Z,0.00
2023-12-23T02:11:13.799Z,0.00
2023-12-23T02:12:13.748Z,0.00
2023-12-23T02:13:14.546Z,0.00
2023-12-23T02:14:13.752Z,0.00
2023-12-23T02:15:13.723Z,0.00
2023-12-23T02:16:13.672Z,0.00
2023-12-23T02:17:13.683Z,0.00
2023-12-23T02:18:13.703Z,0.00
2023-12-23T02:19:13.696Z,0.00
2023-12-23T02:20:13.639Z,0.00
2023-12-23T02:21:13.642Z,0.00
2023-12-23T02:22:13.667Z,0.00
2023-12-23T02:23:13.638Z,0.00
2023-12-23T02:24:13.591Z,0.00
2023-12-23T02:25:13.564Z,0.00
2023-12-23T02:26:13.658Z,0.00
2023-12-23T02:27:13.523Z,0.00
2023-12-23T02:28:13.557Z,0.00
2023-12-23T02:29:13.522Z,0.00
2023-12-23T02:30:13.525Z,0.00
2023-12-23T02:31:13.486Z,0.00
2023-12-23T02:32:13.535Z,0.00
2023-12-23T02:33:13.528Z,0.00
2023-12-23T02:34:13.438Z,0.00
2023-12-23T02:35:13.470Z,0.00
2023-12-23T02:36:13.429Z,0.00
2023-12-23T02:37:13.380Z,0.00
2023-12-23T02:38:13.453Z,0.00
2023-12-23T02:39:15.436Z,0.00
2023-12-23T02:40:13.367Z,0.00
2023-12-23T02:41:13.437Z,0.00
2023-12-23T02:42:13.330Z,0.00
2023-12-23T02:43:13.353Z,0.00
2023-12-23T02:44:13.374Z,0.00
2023-12-23T02:45:13.309Z,0.00
2023-12-23T02:46:13.277Z,0.00
2023-12-23T02:47:13.308Z,0.00
2023-12-23T02:48:13.407Z,0.00
2023-12-23T02:49:13.273Z,0.00
2023-12-23T02:50:13.293Z,0.00
2023-12-23T02:51:13.179Z,0.00
2023-12-23T02:52:13.180Z,0.00
2023-12-23T02:53:13.238Z,0.00
2023-12-23T02:54:13.176Z,0.00
2023-12-23T02:55:13.175Z,0.00
2023-12-23T02:56:13.202Z,0.00
2023-12-23T02:57:13.107Z,0.00
2023-12-23T02:58:13.099Z,0.00
2023-12-23T02:59:13.174Z,0.00
2023-12-23T03:00:13.135Z,0.00
2023-12-23T03:01:13.076Z,0.00
2023-12-23T03:02:13.129Z,0.00
2023-12-23T03:03:13.365Z,0.00
2023-12-23T03:04:13.030Z,0.00
2023-12-23T03:05:13.107Z,0.00
2023-12-23T03:06:13.069Z,0.00
2023-12-23T03:07:12.966Z,0.00
2023-12-23T03:08:13.062Z,0.00
2023-12-23T03:09:12.958Z,0.00
2023-12-23T03:10:12.931Z,0.00
2023-12-23T03:11:12.924Z,0.00
2023-12-23T03:12:12.914Z,0.00
2023-12-23T03:13:12.911Z,0.00
2023-12-23T03:14:12.971Z,0.00
2023-12-23T03:15:12.875Z,0.00
2023-12-23T03:16:12.857Z,0.00
2023-12-23T03:17:13.013Z,0.00
2023-12-23T03:18:12.923Z,0.00
2023-12-23T03:19:12.873Z,0.00
2023-12-23T03:20:12.898Z,0.00
2023-12-23T03:21:12.770Z,0.00
2023-12-23T03:22:12.780Z,0.00
2023-12-23T03:23:12.786Z,0.00
2023-12-23T03:24:12.762Z,0.00
2023-12-23T03:25:12.726Z,0.00
2023-12-23T03:26:12.774Z,0.00
2023-12-23T03:27:12.717Z,0.00
2023-12-23T03:28:12.706Z,0.00
2023-12-23T03:29:12.740Z,0.00
2023-12-23T03:30:12.768Z,0.00
2023-12-23T03:31:12.669Z,0.00
2023-12-23T03:32:12.675Z,0.00
2023-12-23T03:33:12.695Z,0.00
2023-12-23T03:34:12.640Z,0.00
2023-12-23T03:35:12.630Z,0.00
2023-12-23T03:36:12.619Z,0.00
2023-12-23T03:37:12.609Z,0.00
2023-12-23T03:38:12.623Z,0.00
2023-12-23T03:39:12.545Z,0.00
2023-12-23T03:40:12.526Z,0.00
2023-12-23T03:41:12.626Z,0.00
2023-12-23T03:42:12.518Z,0.00
2023-12-23T03:43:12.478Z,0.00
2023-12-23T03:44:12.537Z,0.00
2023-12-23T03:45:12.653Z,0.00
2023-12-23T03:46:12.459Z,0.00
2023-12-23T03:47:12.465Z,0.00
2023-12-23T03:48:12.482Z,0.00
2023-12-23T03:49:12.435Z,0.00
2023-12-23T03:50:12.523Z,0.00
2023-12-23T03:51:12.380Z,0.00
2023-12-23T03:52:12.367Z,0.00
2023-12-23T03:53:12.409Z,0.00
2023-12-23T03:54:12.387Z,0.00
2023-12-23T03:55:12.352Z,0.00
2023-12-23T03:56:12.437Z,0.00
2023-12-23T03:57:12.304Z,0.00
2023-12-23T03:58:12.349Z,0.00
2023-12-23T03:59:12.495Z,0.00
2023-12-23T04:00:12.317Z,0.00
2023-12-23T04:01:12.302Z,0.00
2023-12-23T04:02:12.244Z,0.00
2023-12-23T04:03:12.321Z,0.00
2023-12-23T04:04:12.223Z,0.00
2023-12-23T04:05:12.279Z,0.00
2023-12-23T04:06:12.232Z,0.00
2023-12-23T04:07:12.163Z,0.00
2023-12-23T04:08:12.268Z,0.00
2023-12-23T04:09:12.142Z,0.00
2023-12-23T04:10:12.145Z,0.00
2023-12-23T04:11:12.180Z,0.00
2023-12-23T04:12:12.110Z,0.00
2023-12-23T04:13:12.115Z,0.00
2023-12-23T04:14:12.128Z,0.00
2023-12-23T04:15:12.108Z,0.00
2023-12-23T04:16:15.083Z,0.00
2023-12-23T04:17:12.077Z,0.00
2023-12-23T04:18:12.129Z,0.00
2023-12-23T04:19:12.143Z,0.00
2023-12-23T04:20:12.117Z,0.00
2023-12-23T04:21:12.035Z,0.00
2023-12-23T04:22:12.033Z,0.00
2023-12-23T04:23:11.994Z,0.00
2023-12-23T04:24:11.946Z,0.00
2023-12-23T04:25:11.924Z,0.00
2023-12-23T04:26:12.139Z,0.00
2023-12-23T04:27:11.944Z,0.00
2023-12-23T04:28:11.896Z,0.00
2023-12-23T04:29:11.911Z,0.00
2023-12-23T04:30:11.891Z,0.00
2023-12-23T04:31:11.931Z,0.00
2023-12-23T04:32:11.866Z,0.00
2023-12-23T04:33:11.903Z,0.00
2023-12-23T04:34:11.880Z,0.00
2023-12-23T04:35:11.838Z,0.00
2023-12-23T04:36:11.785Z,0.00
2023-12-23T04:37:11.777Z,0.00
2023-12-23T04:38:11.759Z,0.00
2023-12-23T04:39:11.791Z,0.00
2023-12-23T04:40:11.713Z,0.00
2023-12-23T04:41:11.882Z,0.00
2023-12-23T04:42:11.721Z,0.00
2023-12-23T04:43:11.722Z,0.00
2023-12-23T04:44:11.682Z,0.00
2023-12-23T04:45:11.663Z,0.00
2023-12-23T04:46:11.653Z,0.00
2023-12-23T04:47:11.683Z,0.00
2023-12-23T04:48:11.661Z,0.00
2023-12-23T04:49:11.601Z,0.00
2023-12-23T04:50:11.690Z,0.00
2023-12-23T04:51:11.604Z,0.00
2023-12-23T04:52:11.558Z,0.00
2023-12-23T04:53:11.581Z,0.00
2023-12-23T04:54:11.542Z,0.00
2023-12-23T04:55:11.561Z,0.00
2023-12-23T04:56:11.559Z,0.00
2023-12-23T04:57:11.495Z,0.00
2023-12-23T04:58:11.468Z,0.00
2023-12-23T04:59:11.574Z,0.00
2023-12-23T05:00:11.471Z,0.00
2023-12-23T05:01:11.550Z,0.00
2023-12-23T05:02:11.429Z,0.00
2023-12-23T05:03:11.420Z,0.00
2023-12-23T05:04:11.450Z,0.00
2023-12-23T05:05:11.504Z,0.00
2023-12-23T05:06:11.449Z,0.00
2023-12-23T05:07:11.393Z,0.00
2023-12-23T05:08:11.361Z,0.00
2023-12-23T05:09:11.424Z,0.00
2023-12-23T05:10:11.313Z,0.00
2023-12-23T05:11:11.345Z,0.00
2023-12-23T05:12:11.337Z,0.00
2023-12-23T05:13:11.286Z,0.00
2023-12-23T05:14:11.380Z,0.00
2023-12-23T05:15:11.253Z,0.00
2023-12-23T05:16:11.247Z,0.00
2023-12-23T05:17:11.374Z,0.00
2023-12-23T05:18:11.348Z,0.00
2023-12-23T05:19:11.318Z,0.00
2023-12-23T05:20:11.315Z,0.00
2023-12-23T05:21:11.197Z,0.00
2023-12-23T05:22:11.162Z,0.00
2023-12-23T05:23:11.192Z,0.00
2023-12-23T05:24:11.220Z,0.00
2023-12-23T05:25:11.118Z,0.00
2023-12-23T05:26:11.145Z,0.00
2023-12-23T05:27:11.111Z,0.00
2023-12-23T05:28:11.119Z,0.00
2023-12-23T05:29:11.112Z,0.00
2023-12-23T05:30:11.060Z,0.00
2023-12-23T05:31:11.038Z,0.00
2023-12-23T05:32:11.096Z,0.00
2023-12-23T05:33:11.073Z,0.00
2023-12-23T05:34:11.022Z,0.00
2023-12-23T05:35:11.035Z,0.00
2023-12-23T05:36:10.974Z,0.00
2023-12-23T05:37:10.993Z,0.00
2023-12-23T05:38:11.042Z,0.00
2023-12-23T05:39:10.926Z,0.00
2023-12-23T05:40:10.893Z,0.00
2023-12-23T05:41:10.953Z,0.20
2023-12-23T05:42:10.914Z,0.31
2023-12-23T05:43:10.926Z,0.10
2023-12-23T05:44:10.899Z,0.00
2023-12-23T05:45:10.844Z,0.00
2023-12-23T05:46:10.856Z,1.33
2023-12-23T05:47:10.843Z,1.84
2023-12-23T05:48:10.978Z,3.59
2023-12-23T05:49:10.830Z,4.52
2023-12-23T05:50:10.787Z,4.72
2023-12-23T05:51:10.785Z,2.87
2023-12-23T05:52:10.816Z,1.43
2023-12-23T05:53:10.803Z,2.36
2023-12-23T05:54:10.756Z,0.51
2023-12-23T05:55:10.775Z,0.00
2023-12-23T05:56:10.828Z,1.23
2023-12-23T05:57:10.682Z,0.61
2023-12-23T05:58:10.681Z,0.31
2023-12-23T05:59:10.730Z,2.15
2023-12-23T06:00:13.154Z,2.05
2023-12-23T06:01:10.725Z,0.00
2023-12-23T06:02:10.715Z,0.00
2023-12-23T06:03:10.669Z,0.00
2023-12-23T06:04:10.608Z,0.00
2023-12-23T06:05:10.630Z,0.00
2023-12-23T06:06:10.602Z,0.00
2023-12-23T06:07:10.571Z,0.00
2023-12-23T06:08:10.769Z,0.00
2023-12-23T06:09:10.554Z,0.20
2023-12-23T06:10:10.529Z,0.00
2023-12-23T06:11:10.551Z,0.10
2023-12-23T06:12:10.475Z,0.00
2023-12-23T06:13:10.461Z,0.41
2023-12-23T06:14:10.491Z,2.56
2023-12-23T06:15:10.448Z,3.59
2023-12-23T06:16:10.421Z,3.08
2023-12-23T06:17:10.475Z,4.72
2023-12-23T06:18:10.518Z,3.28
2023-12-23T06:19:10.522Z,4.21
2023-12-23T06:20:10.453Z,4.10
2023-12-23T06:21:10.363Z,3.59
2023-12-23T06:22:10.331Z,4.82
2023-12-23T06:23:10.359Z,6.05
2023-12-23T06:24:10.350Z,9.44
2023-12-23T06:25:10.308Z,7.08
2023-12-23T06:26:10.322Z,5.64
2023-12-23T06:27:10.299Z,7.90
2023-12-23T06:28:10.280Z,6.77
2023-12-23T06:29:10.304Z,8.62
2023-12-23T06:30:10.280Z,8.82
2023-12-23T06:31:10.239Z,11.59
2023-12-23T06:32:10.281Z,8.62
2023-12-23T06:33:10.315Z,11.49
2023-12-23T06:34:10.337Z,12.01
2023-12-23T06:35:10.236Z,12.31
2023-12-23T06:36:10.148Z,16.31
2023-12-23T06:37:10.150Z,14.98
2023-12-23T06:38:10.203Z,17.96
2023-12-23T06:39:10.124Z,16.30
2023-12-23T06:40:10.145Z,16.31
2023-12-23T06:41:10.153Z,12.41
2023-12-23T06:42:10.129Z,14.16
2023-12-23T06:43:43.667Z,9.75
2023-12-23T06:44:11.109Z,9.44
2023-12-23T06:45:10.053Z,10.57
2023-12-23T06:46:10.032Z,8.62
2023-12-23T06:47:10.051Z,11.18
2023-12-23T06:48:10.132Z,9.75
2023-12-23T06:49:10.115Z,6.67
2023-12-23T06:50:10.091Z,7.28
2023-12-23T06:51:09.974Z,8.00
2023-12-23T06:52:09.987Z,6.57
2023-12-23T06:53:09.960Z,6.36
2023-12-23T06:54:09.927Z,5.64
2023-12-23T06:55:09.906Z,4.61
2023-12-23T06:56:09.954Z,5.23
2023-12-23T06:57:09.896Z,3.89
2023-12-23T06:58:09.868Z,0.41
2023-12-23T06:59:09.934Z,0.82
2023-12-23T07:00:09.941Z,2.56
2023-12-23T07:01:09.912Z,0.00
2023-12-23T07:02:09.912Z,0.00
2023-12-23T07:03:09.845Z,0.00
2023-12-23T07:04:09.917Z,0.00
2023-12-23T07:05:09.873Z,0.00
2023-12-23T07:06:09.819Z,0.00
2023-12-23T07:07:09.795Z,0.00
2023-12-23T07:08:09.776Z,0.00
2023-12-23T07:09:09.727Z,0.00
2023-12-23T07:10:09.785Z,0.00
2023-12-23T07:11:09.812Z,0.00
2023-12-23T07:12:09.677Z,0.00
2023-12-23T07:13:09.682Z,0.00
2023-12-23T07:14:09.856Z,0.00
2023-12-23T07:15:09.674Z,0.00
2023-12-23T07:16:09.633Z,0.00
2023-12-23T07:17:09.687Z,0.00
2023-12-23T07:18:09.625Z,0.00
2023-12-23T07:19:09.581Z,0.00
2023-12-23T07:20:09.702Z,0.00
2023-12-23T07:21:09.564Z,0.00
2023-12-23T07:22:09.541Z,0.00
2023-12-23T07:23:09.581Z,0.00
2023-12-23T07:24:09.575Z,0.00
2023-12-23T07:25:09.512Z,0.00
2023-12-23T07:26:09.523Z,0.00
2023-12-23T07:27:09.495Z,0.00
2023-12-23T07:28:09.487Z,0.00
2023-12-23T07:29:09.538Z,0.00
2023-12-23T07:30:09.528Z,0.00
2023-12-23T07:31:09.451Z,0.00
2023-12-23T07:32:09.460Z,0.00
2023-12-23T07:33:09.581Z,0.00
2023-12-23T07:34:09.560Z,0.00
2023-12-23T07:35:09.419Z,0.00
2023-12-23T07:36:09.353Z,0.00
2023-12-23T07:37:09.336Z,0.00
2023-12-23T07:38:09.462Z,0.00
2023-12-23T07:39:09.363Z,0.00
2023-12-23T07:40:09.309Z,0.00
2023-12-23T07:41:09.374Z,0.00
2023-12-23T07:42:09.298Z,0.00
2023-12-23T07:43:09.275Z,0.00
2023-12-23T07:44:09.320Z,0.00
2023-12-23T07:45:09.250Z,0.00
2023-12-23T07:46:09.300Z,0.00
2023-12-23T07:47:09.231Z,0.00
2023-12-23T07:48:09.293Z,0.00
2023-12-23T07:49:09.293Z,0.00
2023-12-23T07:50:09.299Z,0.00
2023-12-23T07:51:09.166Z,0.00
2023-12-23T07:52:09.198Z,0.00
2023-12-23T07:53:09.235Z,0.00
2023-12-23T07:54:09.198Z,0.00
2023-12-23T07:55:09.114Z,0.00
2023-12-23T07:56:09.252Z,0.00
2023-12-23T07:57:09.113Z,0.00
2023-12-23T07:58:09.112Z,0.00
2023-12-23T07:59:09.082Z,0.00
2023-12-23T08:00:09.033Z,0.00
2023-12-23T08:01:09.066Z,0.00
2023-12-23T08:02:09.094Z,0.00
2023-12-23T08:03:08.996Z,0.00
2023-12-23T08:04:09.039Z,0.00
2023-12-23T08:05:09.893Z,0.00
2023-12-23T08:06:09.086Z,0.00
2023-12-23T08:07:08.934Z,0.00
2023-12-23T08:08:08.984Z,0.00
2023-12-23T08:09:08.917Z,0.00
2023-12-23T08:10:08.948Z,0.00
2023-12-23T08:11:09.020Z,0.00
2023-12-23T08:12:08.876Z,0.00
2023-12-23T08:13:08.885Z,0.00
2023-12-23T08:14:08.925Z,0.00
2023-12-23T08:15:08.882Z,0.00
2023-12-23T08:16:08.866Z,0.00
2023-12-23T08:17:08.864Z,0.00
2023-12-23T08:18:08.900Z,0.00
2023-12-23T08:19:08.813Z,0.00
2023-12-23T08:20:09.021Z,0.00
2023-12-23T08:21:08.747Z,0.00
2023-12-23T08:22:08.748Z,0.00
2023-12-23T08:23:08.782Z,0.00
2023-12-23T08:24:08.745Z,0.00
2023-12-23T08:25:08.752Z,0.00
2023-12-23T08:26:08.757Z,0.00
2023-12-23T08:27:08.713Z,0.00
2023-12-23T08:28:08.697Z,0.00
2023-12-23T08:29:08.761Z,0.00
2023-12-23T08:30:08.714Z,0.00
2023-12-23T08:31:08.715Z,0.00
2023-12-23T08:32:08.695Z,0.00
2023-12-23T08:33:08.677Z,0.00
2023-12-23T08:34:08.664Z,0.00
2023-12-23T08:35:08.649Z,0.00
2023-12-23T08:36:08.575Z,0.00
2023-12-23T08:37:08.558Z,0.00
2023-12-23T08:38:08.602Z,0.00
2023-12-23T08:39:08.537Z,0.00
2023-12-23T08:40:08.518Z,0.00
2023-12-23T08:41:08.526Z,0.00
2023-12-23T08:42:08.517Z,0.00
2023-12-23T08:43:08.520Z,0.00
2023-12-23T08:44:08.520Z,0.00
2023-12-23T08:45:08.457Z,0.00
2023-12-23T08:46:08.463Z,0.00
2023-12-23T08:47:08.444Z,0.00
2023-12-23T08:48:08.486Z,0.00
2023-12-23T08:49:08.468Z,0.00
2023-12-23T08:50:08.485Z,0.00
2023-12-23T08:51:08.341Z,0.00
2023-12-23T08:52:08.401Z,0.00
2023-12-23T08:53:08.400Z,0.00
2023-12-23T08:54:08.306Z,0.61
2023-12-23T08:55:08.301Z,1.54
2023-12-23T08:56:08.380Z,1.03
2023-12-23T08:57:08.280Z,3.89
2023-12-23T08:58:08.288Z,4.00
2023-12-23T08:59:08.281Z,6.56
2023-12-23T09:00:08.242Z,9.53
2023-12-23T09:01:08.278Z,10.25
2023-12-23T09:02:08.242Z,11.18
2023-12-23T09:03:08.247Z,10.97
2023-12-23T09:04:08.166Z,11.38
2023-12-23T09:05:08.363Z,13.23
2023-12-23T09:06:08.210Z,16.72
2023-12-23T09:07:08.174Z,14.14
2023-12-23T09:08:08.221Z,14.76
2023-12-23T09:09:08.436Z,17.43
2023-12-23T09:10:08.131Z,20.61
2023-12-23T09:11:08.251Z,21.94
2023-12-23T09:12:08.070Z,21.12
2023-12-23T09:13:08.076Z,19.37
2023-12-23T09:14:08.097Z,16.81
2023-12-23T09:15:08.104Z,23.78
2023-12-23T09:16:08.076Z,21.63
2023-12-23T09:17:08.018Z,21.01
2023-12-23T09:18:08.083Z,22.55
2023-12-23T09:19:08.129Z,26.45
2023-12-23T09:20:08.025Z,26.14
2023-12-23T09:21:07.955Z,25.63
2023-12-23T09:22:07.946Z,27.88
2023-12-23T09:23:07.956Z,25.42
2023-12-23T09:24:07.937Z,26.14
2023-12-23T09:25:07.938Z,24.19
2023-12-23T09:26:07.937Z,22.86
2023-12-23T09:27:07.899Z,23.58
2023-12-23T09:28:07.857Z,20.50
2023-12-23T09:29:07.905Z,24.40
2023-12-23T09:30:07.909Z,20.40
2023-12-23T09:31:07.807Z,19.99
2023-12-23T09:32:07.818Z,21.63
2023-12-23T09:33:07.933Z,18.66
2023-12-23T09:34:07.882Z,24.50
2023-12-23T09:35:07.914Z,25.93
2023-12-23T09:36:07.749Z,29.83
2023-12-23T09:37:07.737Z,31.37
2023-12-23T09:38:07.775Z,29.61
2023-12-23T09:39:07.724Z,28.28
2023-12-23T09:40:07.683Z,25.22
2023-12-23T09:41:07.706Z,27.98
2023-12-23T09:42:07.660Z,29.63
2023-12-23T09:43:07.690Z,29.11
2023-12-23T09:44:07.728Z,29.10
2023-12-23T09:45:07.614Z,28.69
2023-12-23T09:46:07.649Z,33.20
2023-12-23T09:47:07.693Z,30.94
2023-12-23T09:48:07.702Z,31.05
2023-12-23T09:49:07.890Z,30.84
2023-12-23T09:50:07.598Z,28.17
2023-12-23T09:51:07.543Z,30.22
2023-12-23T09:52:07.536Z,34.63
2023-12-23T09:53:07.666Z,31.25
2023-12-23T09:54:07.590Z,31.15
2023-12-23T09:55:07.508Z,31.87
2023-12-23T09:56:07.542Z,33.92
2023-12-23T09:57:07.450Z,34.84
2023-12-23T09:58:07.460Z,31.35
2023-12-23T09:59:07.465Z,31.15
2023-12-23T10:00:07.426Z,29.20
2023-12-23T10:01:07.424Z,34.74
2023-12-23T10:02:07.530Z,34.22
2023-12-23T10:03:07.441Z,34.43
2023-12-23T10:04:07.385Z,31.87
2023-12-23T10:05:07.400Z,29.61
2023-12-23T10:06:07.433Z,27.46
2023-12-23T10:07:07.361Z,26.54
2023-12-23T10:08:07.359Z,24.38
2023-12-23T10:09:07.280Z,20.49
2023-12-23T10:10:07.316Z,19.27
2023-12-23T10:11:07.342Z,15.17
2023-12-23T10:12:07.281Z,7.58
2023-12-23T10:13:07.250Z,6.76
2023-12-23T10:14:07.334Z,1.33
2023-12-23T10:15:07.207Z,0.00
2023-12-23T10:16:07.232Z,0.00
2023-12-23T10:17:07.234Z,0.00
2023-12-23T10:18:07.292Z,0.00
2023-12-23T10:19:07.232Z,0.00
2023-12-23T10:20:07.196Z,0.00
2023-12-23T10:21:07.141Z,0.00
2023-12-23T10:22:07.128Z,0.00
2023-12-23T10:23:07.150Z,0.00
2023-12-23T10:24:07.099Z,0.00
2023-12-23T10:25:07.089Z,0.00
2023-12-23T10:26:07.117Z,0.00
2023-12-23T10:27:07.043Z,0.00
2023-12-23T10:28:07.093Z,0.00
2023-12-23T10:29:07.030Z,0.00
2023-12-23T10:30:07.058Z,0.00
2023-12-23T10:31:07.009Z,0.00
2023-12-23T10:32:07.068Z,0.00
2023-12-23T10:33:07.016Z,0.00
2023-12-23T10:34:07.054Z,0.00
2023-12-23T10:35:06.991Z,0.00
2023-12-23T10:36:06.942Z,0.00
2023-12-23T10:37:06.918Z,0.00
2023-12-23T10:38:06.912Z,0.00
2023-12-23T10:39:06.872Z,0.00
2023-12-23T10:40:06.951Z,0.00
2023-12-23T10:41:06.897Z,0.00
2023-12-23T10:42:06.852Z,0.00
2023-12-23T10:43:06.845Z,0.00
2023-12-23T10:44:06.917Z,0.00
2023-12-23T10:45:06.832Z,0.00
2023-12-23T10:46:06.818Z,0.00
2023-12-23T10:47:06.835Z,0.00
2023-12-23T10:48:06.912Z,0.00
2023-12-23T10:49:06.869Z,0.00
2023-12-23T10:50:06.826Z,0.00
2023-12-23T10:51:06.738Z,0.00
2023-12-23T10:52:06.766Z,0.00
2023-12-23T10:53:06.734Z,0.00
2023-12-23T10:54:06.718Z,0.00
2023-12-23T10:55:06.695Z,0.00
2023-12-23T10:56:06.749Z,0.00
2023-12-23T10:57:06.657Z,0.00
2023-12-23T10:58:06.627Z,0.00
2023-12-23T10:59:06.659Z,0.00
2023-12-23T11:00:06.627Z,0.00
2023-12-23T11:01:06.652Z,0.00
2023-12-23T11:02:06.625Z,0.00
2023-12-23T11:03:06.693Z,0.00
2023-12-23T11:04:06.600Z,0.00
2023-12-23T11:05:06.572Z,0.00
2023-12-23T11:06:06.565Z,0.00
2023-12-23T11:07:06.497Z,0.00
2023-12-23T11:08:13.653Z,0.00
2023-12-23T11:09:07.569Z,0.00
2023-12-23T11:10:06.480Z,0.00
2023-12-23T11:11:06.559Z,0.00
2023-12-23T11:12:06.519Z,0.00
2023-12-23T11:13:06.443Z,0.00
2023-12-23T11:14:06.469Z,0.00
2023-12-23T11:15:06.391Z,0.00
2023-12-23T11:16:06.388Z,0.00
2023-12-23T11:17:06.490Z,0.00
2023-12-23T11:18:08.733Z,0.00
2023-12-23T11:19:06.620Z,0.00
2023-12-23T11:20:06.415Z,0.00
2023-12-23T11:21:06.328Z,0.00
2023-12-23T11:22:06.325Z,0.00
2023-12-23T11:23:06.407Z,0.00
2023-12-23T11:24:06.305Z,0.00
2023-12-23T11:25:06.269Z,0.00
2023-12-23T11:26:06.639Z,0.00
2023-12-23T11:27:06.289Z,0.00
2023-12-23T11:28:06.260Z,0.00
2023-12-23T11:29:06.317Z,0.00
2023-12-23T11:30:06.235Z,0.00
2023-12-23T11:31:06.272Z,0.00
2023-12-23T11:32:06.241Z,0.00
2023-12-23T11:33:06.223Z,0.00
2023-12-23T11:34:06.263Z,0.00
2023-12-23T11:35:06.150Z,0.00
2023-12-23T11:36:06.164Z,0.00
2023-12-23T11:37:06.118Z,0.00
2023-12-23T11:38:06.135Z,0.00
2023-12-23T11:39:06.173Z,0.00
2023-12-23T11:40:06.082Z,0.00
2023-12-23T11:41:06.114Z,0.00
2023-12-23T11:42:06.069Z,0.00
2023-12-23T11:43:06.051Z,0.00
2023-12-23T11:44:06.128Z,0.00
2023-12-23T11:45:06.001Z,0.00
2023-12-23T11:46:06.020Z,0.00
2023-12-23T11:47:06.075Z,0.00
2023-12-23T11:48:05.968Z,0.00
2023-12-23T11:49:06.028Z,0.00
2023-12-23T11:50:05.998Z,0.00
2023-12-23T11:51:05.953Z,0.00
2023-12-23T11:52:05.918Z,0.00
2023-12-23T11:53:05.946Z,6.25
2023-12-23T11:54:05.989Z,5.43
2023-12-23T11:55:05.882Z,7.38
2023-12-23T11:56:05.913Z,10.97
2023-12-23T11:57:05.870Z,12.19
2023-12-23T11:58:05.838Z,14.14
2023-12-23T11:59:05.890Z,15.07
2023-12-23T12:00:05.863Z,14.56
2023-12-23T12:01:05.893Z,17.93
2023-12-23T12:02:05.865Z,17.32
2023-12-23T12:03:05.771Z,24.18
2023-12-23T12:04:05.823Z,27.25
2023-12-23T12:05:05.762Z,28.38
2023-12-23T12:06:05.874Z,30.02
2023-12-23T12:07:05.844Z,27.15
2023-12-23T12:08:05.713Z,32.48
2023-12-23T12:09:05.741Z,30.84
2023-12-23T12:10:05.673Z,37.81
2023-12-23T12:11:05.684Z,34.11
2023-12-23T12:12:05.669Z,33.39
2023-12-23T12:13:05.631Z,32.78
2023-12-23T12:14:05.656Z,35.33
2023-12-23T12:15:05.655Z,37.69
2023-12-23T12:16:05.587Z,39.43
2023-12-23T12:17:07.376Z,34.82
2023-12-23T12:18:05.663Z,34.52
2023-12-23T12:19:05.707Z,34.11
2023-12-23T12:20:05.574Z,34.62
2023-12-23T12:21:05.515Z,33.49
2023-12-23T12:22:05.561Z,40.56
2023-12-23T12:23:05.534Z,42.61
2023-12-23T12:24:05.482Z,45.78
2023-12-23T12:25:05.470Z,46.09
2023-12-23T12:26:05.474Z,47.83
2023-12-23T12:27:05.436Z,47.31
2023-12-23T12:28:05.447Z,48.22
2023-12-23T12:29:05.467Z,43.91
2023-12-23T12:30:05.497Z,40.95
2023-12-23T12:31:05.412Z,41.15
2023-12-23T12:32:05.449Z,45.56
2023-12-23T12:33:05.433Z,47.71
2023-12-23T12:34:05.392Z,47.81
2023-12-23T12:35:05.342Z,49.55
2023-12-23T12:36:05.608Z,49.24
2023-12-23T12:37:05.326Z,55.28
2023-12-23T12:38:13.609Z,55.08
2023-12-23T12:39:06.352Z,53.23
2023-12-23T12:40:05.278Z,51.39
2023-12-23T12:41:05.294Z,54.05
2023-12-23T12:42:05.277Z,55.58
2023-12-23T12:43:05.222Z,56.18
2023-12-23T12:44:05.275Z,57.61
2023-12-23T12:45:05.219Z,58.22
2023-12-23T12:46:05.200Z,56.89
2023-12-23T12:47:05.239Z,63.65
2023-12-23T12:48:05.221Z,60.47
2023-12-23T12:49:05.194Z,58.22
2023-12-23T12:50:07.110Z,61.29
2023-12-23T12:51:05.131Z,61.91
2023-12-23T12:52:05.103Z,62.52
2023-12-23T12:53:05.095Z,59.66
2023-12-23T12:54:05.085Z,59.86
2023-12-23T12:55:05.069Z,63.44
2023-12-23T12:56:05.075Z,61.40
2023-12-23T12:57:05.063Z,64.87
2023-12-23T12:58:05.010Z,61.29
2023-12-23T12:59:05.059Z,62.62
2023-12-23T13:00:05.016Z,63.13
2023-12-23T13:01:05.013Z,60.68
2023-12-23T13:02:05.012Z,60.99
2023-12-23T13:03:04.989Z,60.58
2023-12-23T13:04:04.970Z,64.36
2023-12-23T13:05:05.018Z,64.06
2023-12-23T13:06:04.919Z,66.82
2023-12-23T13:07:04.926Z,66.31
2023-12-23T13:08:04.923Z,66.89
2023-12-23T13:09:04.883Z,65.77
2023-12-23T13:10:04.875Z,67.30
2023-12-23T13:11:04.903Z,67.10